Portada
METAR-TAF:

METAR-TAF

Aeroports :

Aeroport de la Llavanera

Perpinyà, França

latitud: 42-44N, longitud: 002-52E, altitud: 43 m

Observació

L'informe es va fer fa 41 minuts, a les 14:00 UTC
Vent 11 kt del Sud-Est, variant entre Est i Sud/Sud-Est
Temperatura 30°C
Humitat 33%
Pressió 1014 hPa
Visibilitat 10 km o més
sense núvols per sota de 1500 mi sense presència de cumulonimbus.

METAR: LFMP 161400Z AUTO 13011KT 100V160 CAVOK 30/12 Q1014 NOSIG

Hora: 16:41 (14:41 UTC)

Pronòstic

L'informe es va fer fa 41 minuts, a les 14:00 UTC
Pronòstic vàlid del 16 a les 15 UTC al 17 a les 15 UTC
Vent 10 kt del Sud-Est
Visibilitat 10 km o més
sense núvols per sota de 1500 mi sense presència de cumulonimbus.
Evolucionant progressivament
l' 16 a les 18 UTC al 16 a les 21 UTC
Vent 5 kt amb direcció variable

TAF: LFMP 161400Z 1615/1715 14010KT CAVOK BECMG 1618/1621 VRB05KT

Observacions i pronòstics meteorològics de més de 4000 aeroports (METAR i TAF).

Les estacions disponibles són els punts grocs i vermells al mapa.

Posi el ratolí al punt desitjat per veure el nom de l'estació.

Feu clic per veure les observacions i els pronòstics meteorològics.

Per canviar el mapa: feu clic els botons verds amb una creu de color negre per apropar; al botó verd amb un guió per allunyar la imatge; o en les fletxes verdes per a mapes adjacents.


METAR-TAF: